Clovis ASC

Dec. 14, 2019, 5:25 p.m.

  • imperial
Air Temperature RH Dewpoint Wind Chill Heat Index Wind Speed Wind Direction Precipitation Solar Radiation Soil Temperature
Date Time Max Mean Mean Total Total
US/Mountain F % F F F MPH MPH MPH deg. deg. in. MJ/m^2 F
2019-12-13 17:25 44.89 36.43 19.81 40.97 44.89 7.07 7.07 6.62 4.0 295.0 0.0 0.0 49.3
2019-12-13 17:30 44.4 35.99 19.09 40.2 44.4 7.43 7.61 7.05 6.0 297.6 0.0 0.0 49.23
2019-12-13 17:35 44.94 36.02 19.59 40.68 44.94 7.78 7.96 7.4 5.4 292.3 0.0 0.0 49.15
2019-12-13 17:40 43.59 38.47 19.92 39.22 43.59 7.43 8.48 7.43 7.6 277.8 0.0 0.0 49.05
2019-12-13 17:45 42.57 39.31 19.51 37.36 42.57 8.68 9.04 8.23 5.1 278.0 0.0 0.0 48.97
2019-12-13 17:50 43.43 36.6 18.61 38.11 43.43 9.4 10.45 9.31 5.4 278.7 0.0 0.0 48.87
2019-12-13 17:55 46.11 32.7 18.36 40.84 46.11 10.98 11.34 10.38 6.6 286.3 0.0 0.0 48.79
2019-12-13 18:00 46.6 32.05 18.32 41.63 46.6 10.45 11.88 10.89 7.0 290.4 0.0 0.0 48.69
2019-12-13 18:05 47.21 31.1 18.16 42.04 47.21 11.52 12.24 10.92 6.2 287.4 0.0 0.0 48.58
2019-12-13 18:10 47.52 31.51 18.73 42.54 47.52 11.16 11.7 10.56 5.8 289.3 0.0 0.0 48.49
2019-12-13 18:15 47.64 30.42 18.02 43.12 47.64 9.91 11.7 10.4 5.8 286.7 0.0 0.0 48.4
2019-12-13 18:20 47.41 30.87 18.16 42.58 47.41 10.63 12.42 10.83 6.0 281.0 0.0 0.0 48.29
2019-12-13 18:25 47.34 31.54 18.6 42.55 47.34 10.45 12.06 10.63 5.8 285.5 0.0 0.0 48.22
2019-12-13 18:30 46.85 32.7 19.01 42.07 46.85 10.09 11.52 10.51 7.8 291.4 0.0 0.0 48.13
2019-12-13 18:35 46.67 32.73 18.88 41.98 46.67 9.73 10.8 9.87 5.3 292.9 0.0 0.0 48.04
2019-12-13 18:40 46.11 33.55 18.96 41.42 46.11 9.4 10.27 9.44 6.1 285.5 0.0 0.0 47.95
2019-12-13 18:45 45.5 35.28 19.6 40.27 45.5 10.45 10.45 9.6 4.4 286.8 0.0 0.0 47.86
2019-12-13 18:50 45.93 34.06 19.16 40.74 45.93 10.63 11.34 10.45 5.5 287.1 0.0 0.0 47.79
2019-12-13 18:55 46.24 33.04 18.72 41.06 46.24 10.8 12.24 10.74 6.8 284.8 0.0 0.0 47.71
2019-12-13 19:00 46.8 32.05 18.5 41.7 46.8 10.98 12.42 11.14 7.1 284.6 0.0 0.0 47.62
2019-12-13 19:05 46.98 31.65 18.36 41.47 46.98 12.42 13.49 11.7 7.0 281.5 0.0 0.0 47.53
2019-12-13 19:10 46.54 32.6 18.67 41.2 46.54 11.52 13.67 12.28 5.4 280.3 0.0 0.0 47.48
2019-12-13 19:15 45.81 34.02 19.02 40.04 45.81 12.24 12.95 11.79 5.8 280.1 0.0 0.0 47.41
2019-12-13 19:20 45.09 35.38 19.3 39.43 45.09 11.34 12.77 11.79 7.0 274.6 0.0 0.0 47.34
2019-12-13 19:25 46.67 33.17 19.19 41.02 46.67 12.59 14.2 12.06 6.3 278.2 0.0 0.0 47.26
2019-12-13 19:30 46.42 35.48 20.55 40.99 46.42 11.7 13.31 11.95 5.7 288.1 0.0 0.0 47.19
2019-12-13 19:35 45.19 37.66 20.86 39.76 45.19 10.8 12.95 11.14 5.8 290.5 0.0 0.0 47.12
2019-12-13 19:40 45.88 36.84 20.95 40.37 45.88 11.52 12.77 11.1 5.8 290.6 0.0 0.0 47.05
2019-12-13 19:45 45.5 37.66 21.13 40.54 45.5 9.73 12.06 10.72 6.2 292.1 0.0 0.0 46.98
2019-12-13 19:50 46.11 35.69 20.41 40.49 46.11 12.06 12.77 11.14 6.3 294.9 0.0 0.0 46.9
2019-12-13 19:55 46.62 34.16 19.83 41.41 46.62 11.16 12.77 11.72 7.2 300.5 0.0 0.0 46.83
2019-12-13 20:00 47.03 33.04 19.42 41.93 47.03 11.16 12.42 11.52 5.7 310.7 0.0 0.0 46.76
2019-12-13 20:05 47.52 32.05 19.13 42.09 47.52 12.59 12.59 11.54 6.8 318.8 0.0 0.0 46.71
2019-12-13 20:10 46.8 32.26 18.65 41.52 46.8 11.52 12.59 10.72 6.3 322.4 0.0 0.0 46.65
2019-12-13 20:15 45.88 34.43 19.36 41.06 45.88 9.57 10.98 9.82 4.7 318.1 0.0 0.0 46.58
2019-12-13 20:20 44.71 35.96 19.34 39.76 44.71 9.22 10.45 9.53 5.0 317.5 0.0 0.0 46.53
2019-12-13 20:25 43.12 38.85 19.73 38.05 43.12 8.68 9.4 8.57 4.6 319.0 0.0 0.0 46.45
2019-12-13 20:30 41.77 42.38 20.56 37.52 41.77 6.53 8.12 7.07 4.5 313.1 0.0 0.0 46.4
2019-12-13 20:35 40.98 41.36 19.27 36.25 40.98 7.07 7.43 6.89 4.2 319.9 0.0 0.0 46.35
2019-12-13 20:40 40.86 43.53 20.35 36.0 40.86 7.25 7.43 6.58 5.7 306.8 0.0 0.0 46.27
2019-12-13 20:45 40.55 44.04 20.35 35.73 40.55 7.07 7.96 7.07 5.4 298.8 0.0 0.0 46.2
2019-12-13 20:50 40.55 44.18 20.42 36.05 40.55 6.53 7.61 6.62 5.3 306.2 0.0 0.0 46.17
2019-12-13 20:55 39.94 46.11 20.87 35.54 39.94 6.17 6.89 6.42 4.4 303.6 0.0 0.0 46.09
2019-12-13 21:00 39.22 47.74 21.03 34.92 39.22 5.82 6.53 6.13 4.1 304.2 0.0 0.0 46.02
2019-12-13 21:05 39.27 48.15 21.28 34.87 39.27 6.0 6.53 5.93 3.5 301.3 0.0 0.0 45.95
2019-12-13 21:10 38.91 49.37 21.54 34.56 38.91 5.82 6.17 5.79 3.8 309.2 0.0 0.0 45.9
2019-12-13 21:15 38.37 50.29 21.48 34.05 38.37 5.64 6.35 5.66 6.4 312.5 0.0 0.0 45.82
2019-12-13 21:20 38.43 50.33 21.55 34.11 38.43 5.64 6.35 5.73 6.6 309.6 0.0 0.0 45.75
2019-12-13 21:25 38.43 50.47 21.61 34.11 38.43 5.64 6.0 5.48 5.2 312.9 0.0 0.0 45.68
2019-12-13 21:30 39.16 48.16 21.19 34.62 39.16 6.17 7.07 6.2 3.5 317.6 0.0 0.0 45.61
2019-12-13 21:35 39.34 47.65 21.1 35.07 39.34 5.82 7.07 6.33 6.8 331.6 0.0 0.0 45.54
2019-12-13 21:40 38.5 48.97 20.97 33.15 38.5 7.25 7.43 6.49 4.2 337.9 0.0 0.0 45.46
2019-12-13 21:45 39.11 46.83 20.48 33.69 39.11 7.61 9.04 8.14 4.2 331.2 0.0 0.0 45.41
2019-12-13 21:50 39.83 45.27 20.34 34.37 39.83 7.96 8.86 7.31 6.9 322.2 0.0 0.0 45.34
2019-12-13 21:55 41.18 43.71 20.75 35.5 41.18 9.04 9.91 8.66 6.6 319.0 0.0 0.0 45.27
2019-12-13 22:00 40.75 44.59 20.82 35.49 40.75 7.96 8.86 7.54 10.8 336.1 0.0 0.0 45.19
2019-12-13 22:05 39.78 47.07 21.21 34.7 39.78 7.25 9.04 7.7 8.0 339.8 0.0 0.0 45.12
2019-12-13 22:10 39.85 44.63 20.02 34.13 39.85 8.48 9.4 7.92 10.6 346.0 0.0 0.0 45.05
2019-12-13 22:15 39.34 46.29 20.42 33.15 39.34 9.22 9.22 7.87 23.5 349.1 0.0 0.0 44.98
2019-12-13 22:20 37.81 48.9 20.3 33.26 37.81 5.82 9.73 7.9 12.6 346.8 0.0 0.0 44.91
2019-12-13 22:25 37.81 49.21 20.45 32.22 37.81 7.43 9.73 6.91 24.4 348.4 0.0 0.0 44.85
2019-12-13 22:30 38.55 47.04 20.07 32.44 38.55 8.68 8.68 5.91 22.8 352.0 0.0 0.0 44.78
2019-12-13 22:35 39.11 47.1 20.61 34.8 39.11 5.82 8.68 6.55 14.6 353.5 0.0 0.0 44.74
2019-12-13 22:40 40.62 44.18 20.49 37.83 40.62 4.21 8.3 6.11 17.8 355.6 0.0 0.0 44.67
2019-12-13 22:45 41.18 44.56 21.2 37.5 41.18 5.46 8.68 5.59 13.1 350.4 0.0 0.0 44.62
2019-12-13 22:50 40.08 46.73 21.32 35.49 40.08 6.53 7.78 6.44 8.7 343.6 0.0 0.0 44.55
2019-12-13 22:55 39.52 47.38 21.13 35.17 39.52 6.0 6.71 5.32 19.5 349.9 0.0 0.0 44.49
2019-12-13 23:00 38.98 49.18 21.52 34.06 38.98 6.71 7.61 6.04 9.3 343.7 0.0 0.0 44.42
2019-12-13 23:05 38.61 49.48 21.31 32.88 38.61 7.96 7.96 6.38 20.5 354.7 0.0 0.0 44.35
2019-12-13 23:10 38.73 48.4 20.91 34.1 38.73 6.17 8.48 6.51 15.6 352.9 0.0 0.0 44.31
2019-12-13 23:15 39.47 47.28 21.03 34.54 39.47 6.89 7.61 6.0 12.2 349.5 0.0 0.0 44.24
2019-12-13 23:20 39.47 48.77 21.77 35.22 39.47 5.82 7.96 6.46 6.9 345.1 0.0 0.0 44.19
2019-12-13 23:25 37.81 52.47 21.97 33.26 37.81 5.82 7.43 6.15 7.8 340.8 0.0 0.0 44.15
2019-12-13 23:30 36.48 55.15 21.9 31.94 36.48 5.46 6.35 5.82 4.8 340.1 0.0 0.0 44.08
2019-12-13 23:35 36.61 55.22 22.05 31.44 36.61 6.35 6.89 6.06 4.3 342.1 0.0 0.0 44.04
2019-12-13 23:40 36.41 54.37 21.5 34.11 36.41 3.13 7.07 5.37 11.5 348.5 0.0 0.0 43.97
2019-12-13 23:45 37.63 51.39 21.31 34.36 37.63 4.21 6.0 4.36 12.4 352.0 0.0 0.0 43.93
2019-12-13 23:50 39.97 44.87 20.26 36.2 39.97 5.28 5.46 4.05 20.9 5.0 0.0 0.0 43.86
2019-12-13 23:55 40.03 48.4 22.1 35.54 40.03 6.35 6.35 5.26 14.3 341.0 0.0 0.0 43.79
2019-12-14 00:00 38.32 50.37 21.47 34.68 38.32 4.74 6.53 4.79 13.1 355.7 0.0 0.0 43.75
2019-12-14 00:05 37.96 50.1 21.01 34.41 37.96 4.56 5.64 3.78 16.0 354.2 0.0 0.0 43.68
2019-12-14 00:10 38.86 48.77 21.2 36.12 38.86 3.85 5.82 4.09 19.1 349.3 0.0 0.0 43.65
2019-12-14 00:15 39.54 46.84 20.88 36.91 39.54 3.85 4.92 3.76 19.1 351.2 0.0 0.0 43.57
2019-12-14 00:20 39.54 49.25 22.07 36.11 39.54 4.74 6.35 4.56 21.8 354.0 0.0 0.0 43.52
2019-12-14 00:25 39.49 47.25 21.04 39.49 39.49 2.77 5.82 4.32 16.3 7.0 0.0 0.0 43.48
2019-12-14 00:30 38.57 50.78 21.89 34.69 38.57 5.1 6.17 5.08 11.3 344.4 0.0 0.0 43.43
2019-12-14 00:35 37.27 53.02 21.71 33.61 37.27 4.56 5.1 4.25 10.9 345.1 0.0 0.0 43.38
2019-12-14 00:40 35.74 56.52 21.79 32.0 35.74 4.38 4.92 4.54 7.2 342.1 0.0 0.0 43.34
2019-12-14 00:45 36.05 55.5 21.65 33.08 36.05 3.67 5.28 3.96 7.4 345.7 0.0 0.0 43.27
2019-12-14 00:50 33.8 61.78 22.07 29.91 33.8 4.21 5.46 4.7 2.2 335.6 0.0 0.0 43.23
2019-12-14 00:55 33.49 61.79 21.78 29.03 33.49 4.74 4.92 4.47 2.5 333.1 0.0 0.0 43.16
2019-12-14 01:00 33.37 63.28 22.23 29.23 33.37 4.38 4.56 4.43 3.6 328.6 0.0 0.0 43.12
2019-12-14 01:05 32.27 67.19 22.61 28.14 32.27 4.21 4.56 4.03 2.9 319.8 0.0 0.0 43.05
2019-12-14 01:10 33.44 62.26 21.91 33.44 33.44 2.95 5.46 4.07 11.2 345.1 0.0 0.0 43.02
2019-12-14 01:15 35.64 57.61 22.14 35.64 35.64 2.77 3.31 2.62 11.6 11.2 0.0 0.0 42.96
2019-12-14 01:20 36.05 56.96 22.26 36.05 36.05 2.24 3.67 2.51 15.8 3.2 0.0 0.0 42.93
2019-12-14 01:25 35.82 57.91 22.44 33.44 35.82 3.13 3.13 2.46 19.8 359.1 0.0 0.0 42.85
2019-12-14 01:30 36.68 56.32 22.59 33.43 36.68 4.03 4.03 2.89 16.3 28.0 0.0 0.0 42.82
2019-12-14 01:35 38.14 54.14 23.01 33.9 38.14 5.46 5.46 3.98 11.7 28.1 0.0 0.0 42.75
2019-12-14 01:40 38.62 53.6 23.23 38.62 38.62 2.95 5.1 4.03 10.9 33.5 0.0 0.0 42.71
2019-12-14 01:45 37.22 54.99 22.52 37.22 37.22 2.42 5.28 3.67 17.4 60.3 0.0 0.0 42.64
2019-12-14 01:50 36.3 57.37 22.67 32.32 36.3 4.74 6.35 4.59 11.3 54.0 0.0 0.0 42.57
2019-12-14 01:55 35.33 58.19 22.09 35.33 35.33 2.95 5.28 3.53 5.7 57.7 0.0 0.0 42.53
2019-12-14 02:00 34.77 59.68 22.17 34.77 34.77 2.77 3.13 2.77 3.3 60.2 0.0 0.0 42.49
2019-12-14 02:05 34.23 60.97 22.17 34.23 34.23 1.52 2.95 1.92 11.1 81.6 0.0 0.0 42.44
2019-12-14 02:10 34.16 62.13 22.54 34.16 34.16 1.7 2.06 1.63 7.2 86.8 0.0 0.0 42.39
2019-12-14 02:15 33.85 62.81 22.51 33.85 33.85 1.88 1.88 1.48 5.4 63.0 0.0 0.0 42.33
2019-12-14 02:20 34.29 62.98 22.99 34.29 34.29 2.24 2.59 1.97 4.3 49.5 0.0 0.0 42.26
2019-12-14 02:25 35.38 60.6 23.11 35.38 35.38 2.95 4.38 3.42 5.8 47.4 0.0 0.0 42.22
2019-12-14 02:30 36.0 59.78 23.36 32.64 36.0 4.03 4.56 3.67 11.1 46.1 0.0 0.0 42.15
2019-12-14 02:35 36.36 58.83 23.32 32.71 36.36 4.38 4.74 4.18 7.8 47.7 0.0 0.0 42.12
2019-12-14 02:40 36.36 59.37 23.54 32.38 36.36 4.74 5.46 4.85 4.8 49.8 0.0 0.0 42.04
2019-12-14 02:45 36.61 59.14 23.68 32.38 36.61 5.1 5.46 4.97 5.8 51.3 0.0 0.0 42.03
2019-12-14 02:50 36.36 58.76 23.29 32.54 36.36 4.56 5.28 4.61 4.1 55.0 0.0 0.0 41.95
2019-12-14 02:55 35.38 60.8 23.19 31.25 35.38 4.74 4.74 4.41 3.3 56.6 0.0 0.0 41.92
2019-12-14 03:00 35.76 60.39 23.38 30.43 35.76 6.35 6.53 5.66 4.5 51.4 0.0 0.0 41.85
2019-12-14 03:05 33.98 64.84 23.39 28.3 33.98 6.35 7.07 6.29 9.9 62.3 0.0 0.0 41.81
2019-12-14 03:10 33.31 67.56 23.74 28.5 33.31 5.1 7.43 6.08 4.0 70.2 0.0 0.0 41.76
2019-12-14 03:15 33.67 66.24 23.61 28.77 33.67 5.28 5.64 4.81 6.2 56.0 0.0 0.0 41.7
2019-12-14 03:20 33.62 66.92 23.8 28.71 33.62 5.28 6.53 5.64 5.9 58.2 0.0 0.0 41.67
2019-12-14 03:25 33.12 68.07 23.73 27.53 33.12 6.0 6.0 5.03 7.1 62.3 0.0 0.0 41.63
2019-12-14 03:30 33.12 68.58 23.9 28.94 33.12 4.38 6.17 5.1 4.3 74.9 0.0 0.0 41.58
2019-12-14 03:35 32.88 69.84 24.12 29.23 32.88 3.85 5.28 4.23 3.8 73.8 0.0 0.0 41.52
2019-12-14 03:40 32.27 70.89 23.88 27.6 32.27 4.74 4.74 4.34 2.0 74.2 0.0 0.0 41.5
2019-12-14 03:45 31.91 72.66 24.13 31.91 31.91 2.42 4.38 3.09 3.2 78.9 0.0 0.0 41.47
2019-12-14 03:50 32.22 72.25 24.29 28.89 32.22 3.49 3.49 2.68 4.6 86.5 0.0 0.0 41.43
2019-12-14 03:55 32.58 71.03 24.23 32.58 32.58 2.95 3.85 3.4 4.8 101.7 0.0 0.0 41.36
2019-12-14 04:00 32.4 71.47 24.2 29.1 32.4 3.49 3.49 3.06 7.5 111.8 0.0 0.0 41.32
2019-12-14 04:05 32.4 70.58 23.9 29.55 32.4 3.13 3.49 2.91 7.1 120.5 0.0 0.0 41.29
2019-12-14 04:10 32.83 70.01 24.12 28.97 32.83 4.03 4.56 3.87 8.2 120.3 0.0 0.0 41.25
2019-12-14 04:15 33.44 68.27 24.11 28.65 33.44 5.1 6.0 4.92 6.4 125.9 0.0 0.0 41.2
2019-12-14 04:20 33.98 67.39 24.31 29.28 33.98 5.1 6.35 4.83 7.3 130.5 0.0 0.0 41.14
2019-12-14 04:25 34.65 65.83 24.39 29.09 34.65 6.35 6.35 5.12 7.5 132.6 0.0 0.0 41.13
2019-12-14 04:30 34.9 65.59 24.54 29.79 34.9 5.82 7.07 6.02 6.1 136.7 0.0 0.0 41.09
2019-12-14 04:35 35.38 64.74 24.69 29.73 35.38 6.71 7.25 6.44 6.8 138.1 0.0 0.0 41.02
2019-12-14 04:40 35.46 64.64 24.72 31.02 35.46 5.1 7.25 6.24 5.4 139.6 0.0 0.0 41.0
2019-12-14 04:45 35.69 64.47 24.88 29.76 35.69 7.25 8.12 6.6 6.1 139.3 0.0 0.0 40.95
2019-12-14 04:50 35.33 64.54 24.56 29.43 35.33 7.07 7.78 6.62 7.5 139.9 0.0 0.0 40.91
2019-12-14 04:55 35.26 65.05 24.68 29.46 35.26 6.89 7.78 6.71 6.3 142.2 0.0 0.0 40.87
2019-12-14 05:00 34.9 65.9 24.65 29.79 34.9 5.82 7.43 6.29 8.2 143.7 0.0 0.0 40.84
2019-12-14 05:05 34.84 65.83 24.58 28.73 34.84 7.25 8.12 6.58 6.4 149.6 0.0 0.0 40.78
2019-12-14 05:10 34.95 65.42 24.53 29.1 34.95 6.89 9.22 7.58 6.9 145.2 0.0 0.0 40.75
2019-12-14 05:15 34.95 65.79 24.66 29.99 34.95 5.64 9.22 6.71 10.7 147.0 0.0 0.0 40.71
2019-12-14 05:20 34.59 66.37 24.53 29.43 34.59 5.82 8.68 6.76 7.7 149.2 0.0 0.0 40.68
2019-12-14 05:25 33.85 67.49 24.23 28.55 33.85 5.82 7.25 5.93 6.8 150.7 0.0 0.0 40.64
2019-12-14 05:30 33.67 68.95 24.57 28.62 33.67 5.46 6.89 5.73 5.8 147.1 0.0 0.0 40.6
2019-12-14 05:35 33.24 69.77 24.44 27.68 33.24 6.0 7.07 5.75 7.0 137.6 0.0 0.0 40.57
2019-12-14 05:40 33.37 69.26 24.38 29.23 33.37 4.38 6.89 5.5 7.8 133.4 0.0 0.0 40.53
2019-12-14 05:45 33.24 69.63 24.39 33.24 33.24 2.77 4.38 3.53 10.4 117.7 0.0 0.0 40.5
2019-12-14 05:50 32.83 70.41 24.26 29.38 32.83 3.67 4.21 3.53 9.5 117.6 0.0 0.0 40.46
2019-12-14 05:55 32.45 70.55 23.94 29.38 32.45 3.31 4.38 3.53 7.3 119.7 0.0 0.0 40.42
2019-12-14 06:00 32.45 70.69 23.99 28.74 32.45 3.85 4.38 3.6 6.4 120.5 0.0 0.0 40.39
2019-12-14 06:05 32.14 71.2 23.87 28.81 32.14 3.49 5.28 4.14 7.7 118.1 0.0 0.0 40.35
2019-12-14 06:10 31.91 72.35 24.02 28.77 31.91 3.31 4.21 3.62 8.7 110.0 0.0 0.0 40.32
2019-12-14 06:15 31.66 72.15 23.72 31.66 31.66 2.59 3.31 2.53 11.5 83.4 0.0 0.0 40.3
2019-12-14 06:20 32.58 70.41 24.02 32.58 32.58 2.77 2.95 2.66 5.0 65.6 0.0 0.0 40.24
2019-12-14 06:25 32.5 70.28 23.9 32.5 32.5 2.42 3.13 2.77 6.3 60.0 0.0 0.0 40.19
2019-12-14 06:30 32.27 70.55 23.77 32.27 32.27 2.77 2.77 2.19 22.0 98.1 0.0 0.0 40.17
2019-12-14 06:35 32.4 70.75 23.96 27.26 32.4 5.28 5.64 3.76 8.4 148.5 0.0 0.0 40.12
2019-12-14 06:40 32.76 71.74 24.64 27.24 32.76 5.82 6.35 5.57 5.3 150.1 0.0 0.0 40.08
2019-12-14 06:45 33.44 70.82 24.99 28.81 33.44 4.92 6.35 5.3 8.2 138.2 0.0 0.001 40.05
2019-12-14 06:50 33.06 71.23 24.76 27.61 33.06 5.82 6.53 5.7 7.8 142.8 0.0 0.001 39.99
2019-12-14 06:55 33.06 70.38 24.47 27.61 33.06 5.82 6.35 5.5 5.5 152.2 0.0 0.002 39.94
2019-12-14 07:00 33.01 70.48 24.45 27.69 33.01 5.64 6.35 5.64 5.3 154.4 0.0 0.003 39.9
2019-12-14 07:05 32.76 70.92 24.36 26.97 32.76 6.17 7.43 6.17 8.1 156.0 0.0 0.005 39.88
2019-12-14 07:10 33.01 71.03 24.64 27.27 33.01 6.17 8.3 6.78 8.0 152.0 0.0 0.005 39.85
2019-12-14 07:15 33.24 70.07 24.54 28.42 33.24 5.1 6.71 5.53 9.2 150.9 0.0 0.01 39.79
2019-12-14 07:20 34.05 68.82 24.89 27.89 34.05 7.07 7.07 5.55 7.9 147.6 0.0 0.014 39.76
2019-12-14 07:25 34.72 67.76 25.15 28.58 34.72 7.25 7.61 6.42 8.5 149.4 0.0 0.018 39.72
2019-12-14 07:30 34.65 68.17 25.23 28.73 34.65 6.89 7.07 5.93 5.7 153.5 0.0 0.022 39.69
2019-12-14 07:35 35.2 67.93 25.68 29.89 35.2 6.17 8.68 7.09 6.2 155.0 0.0 0.029 39.65
2019-12-14 07:40 35.76 65.18 25.21 29.23 35.76 8.3 8.3 7.0 8.0 150.8 0.0 0.034 39.61
2019-12-14 07:45 36.12 65.52 25.68 30.99 36.12 6.17 8.48 7.11 8.3 145.0 0.0 0.039 39.6
2019-12-14 07:50 36.55 62.81 25.08 30.29 36.55 8.12 9.57 7.63 6.8 142.1 0.0 0.043 39.56
2019-12-14 07:55 37.09 61.82 25.21 30.76 37.09 8.48 10.98 7.87 8.4 137.1 0.0 0.047 39.54
2019-12-14 08:00 37.58 62.19 25.81 32.98 37.58 5.82 8.3 6.78 8.2 139.2 0.0 0.05 39.52
2019-12-14 08:05 37.96 60.33 25.43 32.29 37.96 7.61 9.57 7.09 8.6 134.3 0.0 0.054 39.51
2019-12-14 08:10 38.7 58.83 25.52 33.29 38.7 7.43 8.48 6.76 10.2 138.1 0.0 0.058 39.51
2019-12-14 08:15 39.06 58.46 25.71 32.89 39.06 9.04 10.27 7.58 6.6 141.6 0.0 0.062 39.51
2019-12-14 08:20 39.42 56.48 25.22 33.41 39.42 8.86 11.34 8.93 10.7 141.8 0.0 0.066 39.51
2019-12-14 08:25 39.9 55.26 25.15 33.01 39.9 11.16 11.16 8.48 10.6 141.0 0.0 0.069 39.51
2019-12-14 08:30 40.21 56.75 26.08 34.66 40.21 8.3 11.34 8.46 8.7 144.7 0.0 0.071 39.52
2019-12-14 08:35 40.44 55.02 25.55 33.48 40.44 11.7 12.24 9.53 9.5 153.0 0.0 0.073 39.52
2019-12-14 08:40 40.33 57.74 26.61 34.81 40.33 8.3 11.7 9.55 11.0 151.4 0.0 0.078 39.56
2019-12-14 08:45 40.82 56.14 26.39 35.06 40.82 9.04 12.24 9.57 8.9 150.4 0.0 0.084 39.56
2019-12-14 08:50 41.36 56.31 26.97 36.81 41.36 6.89 10.63 8.72 8.5 144.6 0.0 0.081 39.6
2019-12-14 08:55 41.72 56.44 27.36 36.24 41.72 8.86 10.98 8.68 9.4 142.9 0.0 0.09 39.6
2019-12-14 09:00 42.33 55.15 27.37 36.47 42.33 10.09 10.63 9.35 7.7 135.1 0.0 0.095 39.6
2019-12-14 09:05 43.0 54.16 27.55 37.58 43.0 9.4 11.88 9.42 11.0 143.5 0.0 0.099 39.63
2019-12-14 09:10 43.61 55.04 28.52 39.15 43.61 7.61 12.77 9.95 10.8 145.7 0.0 0.103 39.65
2019-12-14 09:15 43.86 52.8 27.74 37.78 43.86 11.7 11.7 9.87 10.2 143.4 0.0 0.106 39.69
2019-12-14 09:20 44.53 53.38 28.62 38.86 44.53 10.98 14.74 12.28 10.2 155.2 0.0 0.109 39.74
2019-12-14 09:25 44.96 53.75 29.2 38.98 44.96 12.24 14.38 11.74 7.8 151.5 0.0 0.113 39.79
2019-12-14 09:30 45.14 51.58 28.35 39.26 45.14 12.06 16.53 13.06 7.5 155.4 0.0 0.116 39.87
2019-12-14 09:35 44.89 52.77 28.68 38.77 44.89 12.59 13.85 11.79 9.3 159.2 0.0 0.117 39.94
2019-12-14 09:40 45.45 51.75 28.72 39.71 45.45 11.88 14.92 12.37 8.0 162.1 0.0 0.123 40.03
2019-12-14 09:45 45.55 51.34 28.62 40.08 45.55 11.16 15.28 12.95 7.1 167.5 0.0 0.125 40.14
2019-12-14 09:50 46.04 50.72 28.78 40.51 46.04 11.7 15.1 11.57 11.5 161.2 0.0 0.127 40.24
2019-12-14 09:55 46.29 50.15 28.73 40.71 46.29 12.06 14.56 12.28 8.3 157.1 0.0 0.129 40.33
2019-12-14 10:00 46.47 50.28 28.96 42.39 46.47 8.12 15.99 12.86 7.6 169.7 0.0 0.131 40.48
2019-12-14 10:05 46.83 48.31 28.32 40.72 46.83 14.38 15.28 12.3 7.4 164.7 0.0 0.134 40.62
2019-12-14 10:10 46.11 50.08 28.53 40.32 46.11 12.59 16.17 12.93 9.0 179.2 0.0 0.136 40.77
2019-12-14 10:15 47.21 47.09 28.04 42.21 47.21 10.98 13.13 11.3 9.0 173.2 0.0 0.138 40.89
2019-12-14 10:20 47.64 48.11 28.96 43.24 47.64 9.57 13.49 10.36 9.2 170.4 0.0 0.14 41.04
2019-12-14 10:25 48.56 45.43 28.4 43.46 48.56 12.42 14.74 11.48 7.9 170.8 0.0 0.142 41.22
2019-12-14 10:30 48.18 45.19 27.93 43.31 48.18 11.34 15.64 12.1 11.9 178.7 0.0 0.144 41.36
2019-12-14 10:35 49.05 44.81 28.51 44.92 49.05 9.73 15.64 12.66 7.8 178.2 0.0 0.147 41.52
2019-12-14 10:40 49.46 44.0 28.44 44.4 49.46 13.13 15.64 13.09 9.9 179.4 0.0 0.148 41.68
2019-12-14 10:45 50.02 42.44 28.07 50.02 50.02 13.67 15.82 12.82 10.6 174.0 0.0 0.149 41.83
2019-12-14 10:50 50.63 42.44 28.62 50.63 50.63 13.67 16.71 13.56 9.7 177.5 0.0 0.15 42.01
2019-12-14 10:55 50.81 42.0 28.53 50.81 50.81 12.06 15.99 13.35 10.7 176.3 0.0 0.151 42.19
2019-12-14 11:00 51.06 41.32 28.36 51.06 51.06 11.16 15.28 12.12 9.0 171.1 0.0 0.153 42.35
2019-12-14 11:05 52.27 38.7 27.85 52.27 52.27 12.24 15.99 12.91 8.7 175.6 0.0 0.154 42.53
2019-12-14 11:10 52.88 37.18 27.42 52.88 52.88 12.06 15.28 12.5 9.7 178.2 0.0 0.155 42.66
2019-12-14 11:15 53.56 36.97 27.89 53.56 53.56 12.24 14.74 11.88 14.1 191.1 0.0 0.153 42.84
2019-12-14 11:20 53.49 35.95 27.15 53.49 53.49 13.13 15.46 12.77 8.6 191.1 0.0 0.154 42.98
2019-12-14 11:25 53.69 37.28 28.21 53.69 53.69 10.98 16.17 11.95 15.0 194.7 0.0 0.157 43.09
2019-12-14 11:30 53.74 37.65 28.5 53.74 53.74 12.42 14.38 11.92 9.4 187.3 0.0 0.158 43.21
2019-12-14 11:35 54.48 34.32 26.9 54.48 54.48 12.24 16.35 12.64 11.6 209.7 0.0 0.159 43.32
2019-12-14 11:40 54.48 35.0 27.37 54.48 54.48 10.8 15.82 12.57 9.3 203.6 0.0 0.159 43.41
2019-12-14 11:45 55.51 33.75 27.4 55.51 55.51 11.88 14.92 10.67 11.6 223.0 0.0 0.159 43.52
2019-12-14 11:50 55.4 34.6 27.91 55.4 55.4 12.06 14.92 11.12 12.6 217.6 0.0 0.16 43.65
2019-12-14 11:55 55.81 34.7 28.34 55.81 55.81 13.85 17.25 12.46 10.4 210.0 0.0 0.159 43.75
2019-12-14 12:00 56.55 32.8 27.62 56.55 56.55 10.98 16.17 11.95 14.2 216.9 0.0 0.159 43.88
2019-12-14 12:05 56.5 32.83 27.6 56.5 56.5 9.57 15.99 12.33 11.4 209.5 0.0 0.159 44.02
2019-12-14 12:10 57.22 33.0 28.36 57.22 57.22 10.63 14.74 11.59 9.9 224.1 0.0 0.158 44.19
2019-12-14 12:15 57.9 32.32 28.45 57.9 57.9 12.95 15.1 11.23 11.6 228.1 0.0 0.158 44.35
2019-12-14 12:20 58.33 32.08 28.64 58.33 58.33 13.13 16.17 12.8 9.7 220.2 0.0 0.156 44.51
2019-12-14 12:25 58.08 31.95 28.32 58.08 58.08 14.74 16.71 13.76 14.0 225.1 0.0 0.156 44.69
2019-12-14 12:30 59.13 31.51 28.9 59.13 59.13 12.06 15.46 12.08 12.0 226.2 0.0 0.155 44.87
2019-12-14 12:35 59.05 32.9 29.89 59.05 59.05 13.49 17.07 13.35 9.8 217.6 0.0 0.154 45.05
2019-12-14 12:40 59.67 32.18 29.89 59.67 59.67 13.31 21.72 15.75 14.6 230.7 0.0 0.153 45.25
2019-12-14 12:45 59.97 32.01 30.03 59.97 59.97 11.7 15.99 12.95 11.5 237.2 0.0 0.152 45.43
2019-12-14 12:50 60.58 31.67 30.3 60.58 60.58 14.2 14.56 11.95 13.7 230.2 0.0 0.15 45.63
2019-12-14 12:55 60.82 30.86 29.87 60.82 60.82 12.59 14.56 12.15 9.8 233.3 0.0 0.149 45.82
2019-12-14 13:00 60.82 32.45 31.1 60.82 60.82 10.98 13.31 10.04 10.0 235.4 0.0 0.147 46.02
2019-12-14 13:05 61.3 31.5 30.79 61.3 61.3 7.61 13.67 9.24 11.0 216.7 0.0 0.146 46.2
2019-12-14 13:10 61.86 30.86 30.77 61.86 61.86 10.09 14.74 11.01 11.1 211.2 0.0 0.144 46.38
2019-12-14 13:15 61.86 31.77 31.49 61.86 61.86 13.67 14.38 10.07 15.9 220.2 0.0 0.142 46.6
2019-12-14 13:20 61.97 33.33 32.78 61.97 61.97 11.34 16.35 12.57 10.8 243.9 0.0 0.14 46.78
2019-12-14 13:25 62.47 32.21 32.37 62.47 62.47 11.52 14.74 11.83 8.3 244.1 0.0 0.138 46.96
2019-12-14 13:30 63.21 31.3 32.3 63.21 63.21 14.74 16.71 12.59 10.3 242.5 0.0 0.136 47.16
2019-12-14 13:35 63.45 31.3 32.51 63.45 63.45 12.77 16.89 12.62 18.0 243.6 0.0 0.133 47.32
2019-12-14 13:40 63.5 31.7 32.87 63.5 63.5 18.32 19.22 15.01 12.5 230.9 0.0 0.13 47.52
2019-12-14 13:45 63.75 31.43 32.88 63.75 63.75 13.85 19.22 15.46 9.5 248.3 0.0 0.128 47.68
2019-12-14 13:50 64.24 31.33 33.22 64.24 64.24 15.64 23.33 15.48 12.8 244.7 0.0 0.125 47.84
2019-12-14 13:55 64.18 32.18 33.84 64.18 64.18 15.28 20.47 15.7 8.9 238.0 0.0 0.122 48.02
2019-12-14 14:00 64.18 31.87 33.6 64.18 64.18 17.96 19.39 16.58 7.6 237.4 0.0 0.12 48.16
2019-12-14 14:05 63.93 32.42 33.81 63.93 63.93 15.46 22.26 17.16 14.4 239.2 0.0 0.117 48.34
2019-12-14 14:10 63.93 32.35 33.75 63.93 63.93 14.03 21.72 17.76 11.1 243.6 0.0 0.113 48.47
2019-12-14 14:15 64.29 32.35 34.07 64.29 64.29 19.22 19.57 16.37 10.5 237.1 0.0 0.11 48.61
2019-12-14 14:20 64.11 32.45 33.99 64.11 64.11 17.96 21.36 18.7 12.7 234.2 0.0 0.107 48.76
2019-12-14 14:25 63.68 32.21 33.43 63.68 63.68 18.32 22.08 18.66 10.1 245.3 0.0 0.104 48.9
2019-12-14 14:30 64.18 32.42 34.03 64.18 64.18 11.88 20.83 16.11 10.4 239.5 0.0 0.101 49.01
2019-12-14 14:35 64.11 32.38 33.94 64.11 64.11 18.14 26.17 17.99 10.4 236.5 0.0 0.097 49.15
2019-12-14 14:40 64.06 32.65 34.1 64.06 64.06 15.99 22.97 17.65 11.7 238.7 0.0 0.094 49.26
2019-12-14 14:45 64.24 32.01 33.76 64.24 64.24 18.5 21.9 17.09 9.0 238.4 0.0 0.09 49.35
2019-12-14 14:50 64.42 31.36 33.4 64.42 64.42 16.17 19.22 14.74 9.9 239.7 0.0 0.087 49.44
2019-12-14 14:55 64.6 32.69 34.6 64.6 64.6 13.49 18.68 15.08 11.1 235.1 0.0 0.083 49.51
2019-12-14 15:00 64.49 32.11 34.06 64.49 64.49 13.13 19.75 14.99 10.5 232.2 0.0 0.079 49.57
2019-12-14 15:05 64.18 31.57 33.36 64.18 64.18 16.89 21.9 17.94 8.4 234.3 0.0 0.076 49.6
2019-12-14 15:10 64.36 31.84 33.74 64.36 64.36 16.89 22.44 18.28 12.6 237.7 0.0 0.072 49.62
2019-12-14 15:15 64.36 31.87 33.76 64.36 64.36 15.99 23.33 17.0 11.8 249.8 0.0 0.068 49.66
2019-12-14 15:20 64.42 31.74 33.7 64.42 64.42 15.64 21.54 17.96 9.3 250.8 0.0 0.064 49.68
2019-12-14 15:25 64.36 32.89 34.55 64.36 64.36 12.95 22.44 15.93 10.3 246.9 0.0 0.06 49.69
2019-12-14 15:30 64.18 32.59 34.16 64.18 64.18 15.99 19.93 16.31 11.2 250.4 0.0 0.057 49.69
2019-12-14 15:35 63.93 32.21 33.65 63.93 63.93 20.65 23.69 17.2 10.7 250.8 0.0 0.053 49.69
2019-12-14 15:40 63.39 33.51 34.16 63.39 63.39 15.1 20.83 16.67 9.1 249.3 0.0 0.049 49.71
2019-12-14 15:45 63.14 33.68 34.07 63.14 63.14 16.35 18.5 15.68 8.4 244.3 0.0 0.045 49.71
2019-12-14 15:50 62.91 33.98 34.08 62.91 62.91 12.95 22.08 16.11 9.8 240.2 0.0 0.041 49.73
2019-12-14 15:55 62.91 34.42 34.41 62.91 62.91 15.99 19.39 14.7 8.4 251.5 0.0 0.036 49.73
2019-12-14 16:00 62.29 34.36 33.82 62.29 62.29 14.2 19.04 14.74 9.4 254.0 0.0 0.031 49.73
2019-12-14 16:05 62.22 34.93 34.17 62.22 62.22 12.59 16.89 14.05 10.5 247.7 0.0 0.026 49.77
2019-12-14 16:10 61.63 35.88 34.32 61.63 61.63 12.24 15.28 12.33 8.8 252.6 0.0 0.021 49.77
2019-12-14 16:15 61.32 36.19 34.26 61.32 61.32 11.52 16.53 12.37 5.9 262.3 0.0 0.016 49.78
2019-12-14 16:20 60.22 37.82 34.39 60.22 60.22 10.09 13.67 11.14 6.5 266.4 0.0 0.012 49.78
2019-12-14 16:25 59.74 38.33 34.29 59.74 59.74 8.68 11.7 9.71 7.2 266.2 0.0 0.009 49.8
2019-12-14 16:30 59.05 39.35 34.34 59.05 59.05 9.22 12.06 9.33 6.0 269.5 0.0 0.006 49.78
2019-12-14 16:35 57.78 41.32 34.42 57.78 57.78 6.89 8.86 7.4 5.8 272.7 0.0 0.004 49.78
2019-12-14 16:40 56.25 43.59 34.38 56.25 56.25 4.56 6.89 5.59 5.2 272.7 0.0 0.002 49.78
2019-12-14 16:45 54.72 46.21 34.45 54.72 54.72 4.21 5.28 4.61 3.6 275.9 0.0 0.001 49.77
2019-12-14 16:50 53.49 47.09 33.8 53.49 53.49 4.03 4.74 4.32 5.3 286.4 0.0 0.001 49.73
2019-12-14 16:55 51.78 52.42 34.91 51.78 51.78 4.74 4.92 4.25 3.4 303.4 0.0 0.001 49.71
2019-12-14 17:00 51.55 53.34 35.13 51.55 51.55 4.56 5.1 4.61 6.3 303.5 0.0 0.0 49.71
2019-12-14 17:05 49.71 55.98 34.64 48.76 49.71 3.67 4.92 4.14 6.0 308.2 0.0 0.0 49.66
2019-12-14 17:10 50.07 54.76 34.42 50.07 50.07 3.67 3.85 3.58 12.8 278.9 0.0 0.0 49.62
2019-12-14 17:15 50.56 52.69 33.91 50.56 50.56 4.56 4.74 4.0 2.6 252.7 0.0 0.0 49.55
2019-12-14 17:20 49.84 52.79 33.29 48.39 49.84 4.38 4.92 4.56 3.6 259.7 0.0 0.0 49.5
2019-12-14 17:25 47.82 56.46 33.08 45.8 47.82 4.74 5.28 4.34 7.3 272.3 0.0 0.0 49.42

Data is courtesy of the NM Climate Center. DO NOT USE IN LEGAL PROCEEDINGS.